Time;durP1;ratioP1;P1;durP2;ratioP2;P2;SDS_P1;SDS_P2;PMS_P1;PMS_P2;Temp;Humidity;BMP_temperature;BMP_pressure;BME280_temperature;BME280_humidity;BME280_pressure;Samples;Min_cycle;Max_cycle;Signal;HPM_P1;HPM_P2
2022/10/26 00:00:11;;;;;;;;;;;;;;;9.69;100.00;101460.47;4952380;28;19965;-78
2022/10/26 00:02:38;;;;;;;;;;;;;;;9.67;100.00;101451.69;4933966;28;19930;-78
2022/10/26 00:05:04;;;;;;;;;;;;;;;9.63;100.00;101457.09;4952282;28;19930;-78
2022/10/26 00:07:30;;;;;;;;;;;;;;;9.58;100.00;101448.44;4958054;28;19937;-78
2022/10/26 00:09:55;;;;;;;;;;;;;;;9.55;100.00;101448.53;4932623;28;20940;-78
2022/10/26 00:12:21;;;;;;;;;;;;;;;9.53;100.00;101449.50;4951172;28;20024;-78
2022/10/26 00:14:46;;;;;;;;;;;;;;;9.51;100.00;101457.47;4950907;28;19930;-78
2022/10/26 00:17:12;;;;;;;;;;;;;;;9.48;100.00;101447.00;4951245;28;21237;-78
2022/10/26 00:19:37;;;;;;;;;;;;;;;9.48;100.00;101441.72;4950415;28;20584;-78
2022/10/26 00:22:02;;;;;;;;;;;;;;;9.47;100.00;101439.97;4951695;28;20413;-78
2022/10/26 00:24:28;;;;;;;;;;;;;;;9.45;100.00;101442.69;4933300;28;19941;-78
2022/10/26 00:26:53;;;;;;;;;;;;;;;9.44;100.00;101440.09;4950447;28;19989;-78
2022/10/26 00:29:19;;;;;;;;;;;;;;;9.44;100.00;101445.38;4950906;28;19930;-78
2022/10/26 00:31:45;;;;;;;;;;;;;;;9.41;100.00;101442.84;4951090;28;20373;-77
2022/10/26 00:34:10;;;;;;;;;;;;;;;9.40;100.00;101443.72;4933882;28;19930;-78
2022/10/26 00:36:36;;;;;;;;;;;;;;;9.38;100.00;101441.16;4952910;28;20000;-78
2022/10/26 00:39:02;;;;;;;;;;;;;;;9.36;100.00;101438.53;4933327;28;19976;-78
2022/10/26 00:41:31;;;;;;;;;;;;;;;9.33;100.00;101435.97;4952834;28;19985;-78
2022/10/26 00:43:57;;;;;;;;;;;;;;;9.32;100.00;101441.34;4933331;28;19976;-78
2022/10/26 00:46:30;;;;;;;;;;;;;;;9.29;100.00;101431.72;4935365;28;20029;-78
2022/10/26 00:48:56;;;;;;;;;;;;;;;9.27;100.00;101432.66;4921186;28;19953;-77
2022/10/26 00:51:23;;;;;;;;;;;;;;;9.24;100.00;101433.63;4937311;28;19930;-77
2022/10/26 00:53:48;;;;;;;;;;;;;;;9.21;100.00;101431.94;4925829;28;20025;-76
2022/10/26 00:56:14;;;;;;;;;;;;;;;9.18;100.00;101428.53;4957203;28;21451;-77
2022/10/26 00:58:39;;;;;;;;;;;;;;;9.16;100.00;101433.00;4957046;28;19938;-78
2022/10/26 01:01:04;;;;;;;;;;;;;;;9.13;100.00;101433.94;4957562;28;19930;-78
2022/10/26 01:03:30;;;;;;;;;;;;;;;9.09;100.00;101427.91;4936882;28;19970;-77
2022/10/26 01:05:56;;;;;;;;;;;;;;;9.07;100.00;101429.72;4936716;28;19933;-77
2022/10/26 01:08:21;;;;;;;;;;;;;;;9.05;100.00;101434.16;4925661;28;19950;-77
2022/10/26 01:10:47;;;;;;;;;;;;;;;9.03;100.00;101422.78;4923480;28;20483;-77
2022/10/26 01:13:13;;;;;;;;;;;;;;;9.01;100.00;101421.09;4937171;28;19929;-77
2022/10/26 01:15:38;;;;;;;;;;;;;;;8.98;100.00;101422.06;4936638;28;19930;-76
2022/10/26 01:18:09;;;;;;;;;;;;;;;8.93;100.00;101416.06;4939302;28;19937;-79
2022/10/26 01:20:58;;;;;;;;;;;;;;;8.90;100.00;101414.38;4936195;28;20001;-79
2022/10/26 01:23:23;;;;;;;;;;;;;;;8.86;100.00;101412.72;4946813;28;19926;-79
2022/10/26 01:25:58;;;;;;;;;;;;;;;8.83;100.00;101412.84;4957075;28;20321;-78
2022/10/26 01:28:47;;;;;;;;;;;;;;;8.80;100.00;101408.50;4920378;28;19970;-78
2022/10/26 01:31:13;;;;;;;;;;;;;;;8.73;100.00;101401.66;4946561;28;19926;-78
2022/10/26 01:33:41;;;;;;;;;;;;;;;8.72;100.00;101402.56;4935459;28;19930;-78
2022/10/26 01:36:21;;;;;;;;;;;;;;;8.70;100.00;101401.75;4939406;28;19933;-79
2022/10/26 01:39:05;;;;;;;;;;;;;;;8.67;100.00;101392.13;4953493;28;19937;-78
2022/10/26 01:41:35;;;;;;;;;;;;;;;8.64;100.00;101397.50;4957257;28;19930;-78
2022/10/26 01:44:11;;;;;;;;;;;;;;;8.63;100.00;101390.50;4956994;28;19930;-78
2022/10/26 01:46:38;;;;;;;;;;;;;;;8.65;100.00;101383.41;4951479;28;19926;-78
2022/10/26 01:49:08;;;;;;;;;;;;;;;8.64;100.00;101383.44;4952449;28;20534;-78
2022/10/26 01:51:33;;;;;;;;;;;;;;;8.63;100.00;101381.72;4952848;28;19965;-79
2022/10/26 01:53:59;;;;;;;;;;;;;;;8.61;100.00;101378.25;4953650;28;20104;-78
2022/10/26 01:56:25;;;;;;;;;;;;;;;8.61;100.00;101386.19;4955379;28;19933;-78
2022/10/26 01:58:53;;;;;;;;;;;;;;;8.61;100.00;101379.09;4955708;28;19926;-78
2022/10/26 02:01:31;;;;;;;;;;;;;;;8.61;100.00;101380.91;4956737;28;19933;-78
2022/10/26 02:03:56;;;;;;;;;;;;;;;8.57;100.00;101374.84;4956820;28;19926;-79
2022/10/26 02:06:24;;;;;;;;;;;;;;;8.55;100.00;101381.91;4956956;28;20444;-78
2022/10/26 02:08:57;;;;;;;;;;;;;;;8.54;100.00;101369.63;4950188;28;19981;-79
2022/10/26 02:11:49;;;;;;;;;;;;;;;8.55;100.00;101374.00;4937522;28;19930;-78
2022/10/26 02:14:17;;;;;;;;;;;;;;;8.53;100.00;101360.88;4952978;28;20312;-78
2022/10/26 02:16:49;;;;;;;;;;;;;;;8.53;100.00;101368.78;4956042;28;20403;-78
2022/10/26 02:19:19;;;;;;;;;;;;;;;8.51;100.00;101365.31;4956221;28;19926;-78
2022/10/26 02:21:46;;;;;;;;;;;;;;;8.50;100.00;101360.06;4940157;28;20316;-78
2022/10/26 02:24:12;;;;;;;;;;;;;;;8.47;100.00;101346.94;4956234;28;19930;-76
2022/10/26 02:26:38;;;;;;;;;;;;;;;8.44;100.00;101345.25;4951578;28;19930;-78
2022/10/26 02:29:04;;;;;;;;;;;;;;;8.42;100.00;101339.16;4956397;28;20004;-78
2022/10/26 02:31:30;;;;;;;;;;;;;;;8.41;100.00;101345.34;4950586;28;19930;-78
2022/10/26 02:33:56;;;;;;;;;;;;;;;8.39;100.00;101344.53;4956506;28;20316;-78
2022/10/26 02:36:22;;;;;;;;;;;;;;;8.37;100.00;101336.66;4952833;28;20344;-78
2022/10/26 02:38:48;;;;;;;;;;;;;;;8.37;100.00;101341.06;4955538;28;20441;-78
2022/10/26 02:41:13;;;;;;;;;;;;;;;8.36;100.00;101336.69;4941937;28;19930;-78
2022/10/26 02:43:40;;;;;;;;;;;;;;;8.34;100.00;101333.25;4951399;28;19977;-78
2022/10/26 02:46:07;;;;;;;;;;;;;;;8.33;100.00;101329.72;4935184;28;20009;-78
2022/10/26 02:48:33;;;;;;;;;;;;;;;8.34;100.00;101326.16;4939896;28;19926;-78
2022/10/26 02:51:11;;;;;;;;;;;;;;;8.34;100.00;101330.59;4955707;28;19937;-78
2022/10/26 02:53:40;;;;;;;;;;;;;;;8.35;100.00;101329.69;4938329;28;19934;-78
2022/10/26 02:56:07;;;;;;;;;;;;;;;8.34;100.00;101330.59;4955836;28;19977;-78
2022/10/26 02:58:33;;;;;;;;;;;;;;;8.33;100.00;101323.59;4949911;28;19933;-78
2022/10/26 03:00:58;;;;;;;;;;;;;;;8.32;100.00;101319.25;4946591;28;19937;-78
2022/10/26 03:03:24;;;;;;;;;;;;;;;8.31;100.00;101321.00;4951069;28;20829;-78
2022/10/26 03:05:49;;;;;;;;;;;;;;;8.32;100.00;101324.50;4950694;28;19936;-78
2022/10/26 03:08:14;;;;;;;;;;;;;;;8.33;100.00;101318.31;4954121;28;19993;-78
2022/10/26 03:10:41;;;;;;;;;;;;;;;8.34;100.00;101312.13;4952652;28;19934;-78
2022/10/26 03:13:07;;;;;;;;;;;;;;;8.34;100.00;101310.34;4949578;28;20001;-78
2022/10/26 03:15:32;;;;;;;;;;;;;;;8.36;100.00;101316.47;4952068;28;20393;-78
2022/10/26 03:17:57;;;;;;;;;;;;;;;8.36;100.00;101310.31;4955748;28;19936;-78
2022/10/26 03:20:23;;;;;;;;;;;;;;;8.37;100.00;101312.91;4955055;28;20896;-78
2022/10/26 03:22:48;;;;;;;;;;;;;;;8.38;100.00;101313.75;4955168;28;20393;-78
2022/10/26 03:25:16;;;;;;;;;;;;;;;8.39;100.00;101310.25;4955776;28;19953;-76
2022/10/26 03:27:42;;;;;;;;;;;;;;;8.41;100.00;101314.53;4955389;28;20511;-78
2022/10/26 03:30:07;;;;;;;;;;;;;;;8.43;100.00;101307.47;4939546;28;19929;-78
2022/10/26 03:32:33;;;;;;;;;;;;;;;8.46;100.00;101309.16;4950236;28;20025;-78
2022/10/26 03:34:58;;;;;;;;;;;;;;;8.48;100.00;101306.44;4954867;28;20018;-78
2022/10/26 03:37:24;;;;;;;;;;;;;;;8.49;100.00;101314.31;4949005;28;19925;-78
2022/10/26 03:39:50;;;;;;;;;;;;;;;8.50;100.00;101313.41;4937060;28;19941;-78
2022/10/26 03:42:15;;;;;;;;;;;;;;;8.51;100.00;101303.72;4955375;28;19926;-78
2022/10/26 03:44:41;;;;;;;;;;;;;;;8.50;100.00;101299.38;4955122;28;19930;-78
2022/10/26 03:47:06;;;;;;;;;;;;;;;8.52;100.00;101300.22;4954030;28;19934;-78
2022/10/26 03:49:31;;;;;;;;;;;;;;;8.52;100.00;101300.22;4955215;28;19937;-78
2022/10/26 03:51:57;;;;;;;;;;;;;;;8.54;100.00;101295.75;4955126;28;19930;-78
2022/10/26 03:54:22;;;;;;;;;;;;;;;8.55;100.00;101300.97;4951640;28;19993;-78
2022/10/26 03:56:48;;;;;;;;;;;;;;;8.57;100.00;101303.59;4955232;28;20033;-78
2022/10/26 03:59:13;;;;;;;;;;;;;;;8.59;100.00;101304.41;4954932;28;19926;-78
2022/10/26 04:01:41;;;;;;;;;;;;;;;8.60;100.00;101305.28;4955221;28;19942;-78
2022/10/26 04:04:06;;;;;;;;;;;;;;;8.62;100.00;101303.44;4953449;28;20029;-78
2022/10/26 04:06:32;;;;;;;;;;;;;;;8.63;100.00;101294.59;4955010;28;20296;-78
2022/10/26 04:09:01;;;;;;;;;;;;;;;8.65;100.00;101298.06;4954233;28;19941;-78
2022/10/26 04:11:27;;;;;;;;;;;;;;;8.65;100.00;101304.22;4954536;28;19985;-78
2022/10/26 04:13:52;;;;;;;;;;;;;;;8.67;100.00;101297.09;4954514;28;19929;-78
2022/10/26 04:16:18;;;;;;;;;;;;;;;8.68;100.00;101292.69;4954836;28;19961;-78
2022/10/26 04:18:43;;;;;;;;;;;;;;;8.69;100.00;101300.59;4954447;28;20032;-78
2022/10/26 04:21:08;;;;;;;;;;;;;;;8.69;100.00;101302.34;4953317;28;19930;-78
2022/10/26 04:23:34;;;;;;;;;;;;;;;8.68;100.00;101304.09;4958184;28;19930;-78
2022/10/26 04:25:59;;;;;;;;;;;;;;;8.68;100.00;101297.97;4958505;28;19926;-78
2022/10/26 04:28:25;;;;;;;;;;;;;;;8.70;100.00;101290.88;4958338;28;19937;-78
2022/10/26 04:30:50;;;;;;;;;;;;;;;8.71;100.00;101300.50;4958046;28;19934;-78
2022/10/26 04:33:15;;;;;;;;;;;;;;;8.73;100.00;101297.84;4958522;28;19930;-78
2022/10/26 04:35:41;;;;;;;;;;;;;;;8.74;100.00;101289.88;4957698;28;19930;-78
2022/10/26 04:38:08;;;;;;;;;;;;;;;8.76;100.00;101298.59;4957617;28;19937;-78
2022/10/26 04:40:34;;;;;;;;;;;;;;;8.77;100.00;101292.41;4958189;28;19937;-78
2022/10/26 04:42:59;;;;;;;;;;;;;;;8.78;100.00;101288.84;4958256;28;19930;-79
2022/10/26 04:45:27;;;;;;;;;;;;;;;8.80;100.00;101296.72;4957943;28;19941;-78
2022/10/26 04:47:58;;;;;;;;;;;;;;;8.81;100.00;101287.91;4957860;28;19934;-78
2022/10/26 04:50:24;;;;;;;;;;;;;;;8.82;100.00;101295.78;4957858;28;20414;-79
2022/10/26 04:52:49;;;;;;;;;;;;;;;8.84;100.00;101285.19;4937283;28;20121;-78
2022/10/26 04:55:15;;;;;;;;;;;;;;;8.86;100.00;101285.09;4925908;28;20089;-78
2022/10/26 04:57:42;;;;;;;;;;;;;;;8.88;100.00;101280.66;4930072;28;19935;-79
2022/10/26 05:00:08;;;;;;;;;;;;;;;8.89;100.00;101271.81;4957277;28;20420;-79
2022/10/26 05:02:33;;;;;;;;;;;;;;;8.91;100.00;101275.28;4938452;28;19930;-78
2022/10/26 05:04:59;;;;;;;;;;;;;;;8.93;100.00;101276.13;4957894;28;20557;-78
2022/10/26 05:07:24;;;;;;;;;;;;;;;8.93;100.00;101276.97;4958099;28;20510;-79
2022/10/26 05:09:50;;;;;;;;;;;;;;;8.95;100.00;101272.47;4940074;28;19930;-79
2022/10/26 05:12:15;;;;;;;;;;;;;;;8.96;100.00;101279.53;4929718;28;19926;-78
2022/10/26 05:14:40;;;;;;;;;;;;;;;8.99;100.00;101282.97;4957624;28;20510;-78
2022/10/26 05:17:06;;;;;;;;;;;;;;;9.02;100.00;101269.66;4957173;28;21825;-79
2022/10/26 05:19:31;;;;;;;;;;;;;;;9.04;100.00;101268.69;4957757;28;19930;-79
2022/10/26 05:21:57;;;;;;;;;;;;;;;9.08;100.00;101266.81;4957600;28;19934;-79
2022/10/26 05:24:22;;;;;;;;;;;;;;;9.10;100.00;101263.22;4942214;28;20397;-79
2022/10/26 05:26:47;;;;;;;;;;;;;;;9.14;100.00;101263.13;4957592;28;19989;-79
2022/10/26 05:29:13;;;;;;;;;;;;;;;9.16;100.00;101256.84;4957413;28;19962;-79
2022/10/26 05:31:38;;;;;;;;;;;;;;;9.18;100.00;101249.75;4957665;28;20013;-78
2022/10/26 05:34:04;;;;;;;;;;;;;;;9.21;100.00;101243.50;4937185;28;19929;-79
2022/10/26 05:36:29;;;;;;;;;;;;;;;9.23;100.00;101253.13;4957032;28;19961;-78
2022/10/26 05:38:58;;;;;;;;;;;;;;;9.26;100.00;101246.00;4957186;28;19934;-78
2022/10/26 05:41:23;;;;;;;;;;;;;;;9.29;100.00;101248.53;4923996;28;19926;-78
2022/10/26 05:43:49;;;;;;;;;;;;;;;9.30;100.00;101253.75;4957093;28;19936;-78
2022/10/26 05:46:14;;;;;;;;;;;;;;;9.33;100.00;101255.44;4956973;28;20368;-78
2022/10/26 05:48:40;;;;;;;;;;;;;;;9.34;100.00;101258.03;4957586;28;19933;-78
2022/10/26 05:51:05;;;;;;;;;;;;;;;9.36;100.00;101253.56;4956951;28;19933;-79
2022/10/26 05:53:31;;;;;;;;;;;;;;;9.38;100.00;101262.28;4956568;28;20301;-78
2022/10/26 05:55:56;;;;;;;;;;;;;;;9.41;100.00;101263.13;4956918;28;20466;-79
2022/10/26 05:58:22;;;;;;;;;;;;;;;9.44;100.00;101263.00;4938539;28;20424;-78
2022/10/26 06:00:47;;;;;;;;;;;;;;;9.46;100.00;101258.53;4957307;28;20040;-79
2022/10/26 06:03:42;;;;;;;;;;;;;;;9.47;100.00;101255.84;4939202;28;19926;-78
2022/10/26 06:06:07;;;;;;;;;;;;;;;9.49;100.00;101258.44;4939167;28;19930;-79
2022/10/26 06:08:33;;;;;;;;;;;;;;;9.50;100.00;101255.72;4956871;28;19926;-78
2022/10/26 06:10:58;;;;;;;;;;;;;;;9.50;100.00;101268.09;4956875;28;19976;-78
2022/10/26 06:13:24;;;;;;;;;;;;;;;9.50;100.00;101263.66;4955680;28;20408;-78
2022/10/26 06:16:06;;;;;;;;;;;;;;;9.50;100.00;101265.44;4956575;28;19930;-78
2022/10/26 06:18:34;;;;;;;;;;;;;;;9.50;100.00;101257.50;4936625;28;19926;-79
2022/10/26 06:21:05;;;;;;;;;;;;;;;9.49;100.00;101256.63;4956105;28;19926;-79
2022/10/26 06:23:37;;;;;;;;;;;;;;;9.50;100.00;101265.44;4956001;28;19957;-79
2022/10/26 06:26:05;;;;;;;;;;;;;;;9.49;100.00;101269.00;4956580;28;19961;-79
2022/10/26 06:28:31;;;;;;;;;;;;;;;9.49;100.00;101264.56;4956481;28;19926;-79
2022/10/26 06:30:56;;;;;;;;;;;;;;;9.49;100.00;101266.38;4956550;28;19932;-79
2022/10/26 06:33:22;;;;;;;;;;;;;;;9.48;100.00;101262.00;4935701;28;19926;-79
2022/10/26 06:36:06;;;;;;;;;;;;;;;9.48;100.00;101262.00;4934492;28;19933;-79
2022/10/26 06:38:32;;;;;;;;;;;;;;;9.47;100.00;101260.25;4955980;28;20474;-79
2022/10/26 06:40:57;;;;;;;;;;;;;;;9.46;100.00;101258.53;4935680;28;19934;-79
2022/10/26 06:43:24;;;;;;;;;;;;;;;9.46;100.00;101266.44;4934107;28;20588;-79
2022/10/26 06:45:59;;;;;;;;;;;;;;;9.46;100.00;101269.09;4953949;28;19941;-77
2022/10/26 06:48:27;;;;;;;;;;;;;;;9.46;100.00;101277.03;4932230;28;20396;-80
2022/10/26 06:50:52;;;;;;;;;;;;;;;9.48;100.00;101277.84;4933951;28;19930;-80
2022/10/26 06:53:24;;;;;;;;;;;;;;;9.49;100.00;101275.13;4937467;28;20349;-79
2022/10/26 06:55:50;;;;;;;;;;;;;;;9.52;100.00;101274.16;4936899;28;19930;-80
2022/10/26 06:58:19;;;;;;;;;;;;;;;9.55;100.00;101271.44;4933121;28;20492;-79
2022/10/26 07:00:45;;;;;;;;;;;;;;;9.59;100.00;101272.19;4955013;28;21540;-80
2022/10/26 07:03:11;;;;;;;;;;;;;;;9.62;100.00;101277.38;4952614;28;19930;-80
2022/10/26 07:05:36;;;;;;;;;;;;;;;9.64;100.00;101279.03;4951365;28;19977;-79
2022/10/26 07:08:02;;;;;;;;;;;;;;;9.67;100.00;101279.84;4932019;28;19930;-79
2022/10/26 07:10:27;;;;;;;;;;;;;;;9.70;100.00;101282.41;4934149;28;20011;-79
2022/10/26 07:12:52;;;;;;;;;;;;;;;9.73;100.00;101279.63;4951979;28;20024;-79
2022/10/26 07:15:18;;;;;;;;;;;;;;;9.75;100.00;101272.53;4953501;28;20313;-79
2022/10/26 07:17:47;;;;;;;;;;;;;;;9.80;100.00;101277.66;4952892;28;19936;-79
2022/10/26 07:20:12;;;;;;;;;;;;;;;9.83;100.00;101272.25;4951226;28;20497;-79
2022/10/26 07:22:38;;;;;;;;;;;;;;;9.86;100.00;101275.63;4953839;28;19977;-79
2022/10/26 07:25:05;;;;;;;;;;;;;;;9.90;100.00;101273.75;4955337;28;19968;-79
2022/10/26 07:27:31;;;;;;;;;;;;;;;9.94;100.00;101269.22;4954833;28;19956;-80
2022/10/26 07:29:56;;;;;;;;;;;;;;;10.00;100.00;101263.69;4950252;28;19978;-79
2022/10/26 07:32:22;;;;;;;;;;;;;;;10.04;100.00;101268.81;4933800;28;19930;-79
2022/10/26 07:34:47;;;;;;;;;;;;;;;10.08;100.00;101264.28;4954089;28;20620;-79
2022/10/26 07:37:13;;;;;;;;;;;;;;;10.14;100.00;101261.41;4944971;28;19930;-79
2022/10/26 07:39:38;;;;;;;;;;;;;;;10.21;100.00;101263.84;4953609;28;19934;-79
2022/10/26 07:42:04;;;;;;;;;;;;;;;10.26;100.00;101272.47;4951346;28;19934;-79
2022/10/26 07:44:30;;;;;;;;;;;;;;;10.29;100.00;101272.34;4936747;28;19930;-79
2022/10/26 07:46:56;;;;;;;;;;;;;;;10.35;100.00;101281.84;4951025;28;19936;-79
2022/10/26 07:49:21;;;;;;;;;;;;;;;10.38;100.00;101279.94;4952641;28;19930;-79
2022/10/26 07:51:46;;;;;;;;;;;;;;;10.43;100.00;101275.38;4954159;28;19925;-79
2022/10/26 07:54:12;;;;;;;;;;;;;;;10.51;100.00;101274.22;4968957;28;19930;-79
2022/10/26 07:56:37;;;;;;;;;;;;;;;10.57;100.00;101264.25;4953240;28;19936;-79
2022/10/26 07:59:03;;;;;;;;;;;;;;;10.62;100.00;101256.13;4944887;28;19953;-80
2022/10/26 08:01:28;;;;;;;;;;;;;;;10.66;100.00;101262.16;4954015;28;19930;-79
2022/10/26 08:03:54;;;;;;;;;;;;;;;10.68;100.00;101266.47;4952624;28;20065;-79
2022/10/26 08:06:22;;;;;;;;;;;;;;;10.72;100.00;101273.41;4968849;28;19930;-79
2022/10/26 08:08:48;;;;;;;;;;;;;;;10.76;100.00;101271.50;4953217;28;20241;-79
2022/10/26 08:11:14;;;;;;;;;;;;;;;10.80;100.00;101274.88;4954927;28;19962;-80
2022/10/26 08:13:39;;;;;;;;;;;;;;;10.87;100.00;101279.00;4951995;28;19930;-81
2022/10/26 08:16:05;;;;;;;;;;;;;;;10.93;100.00;101286.72;4952176;28;20009;-78
2022/10/26 08:18:31;;;;;;;;;;;;;;;11.00;100.00;101279.38;4953115;28;19930;-78
2022/10/26 08:21:04;;;;;;;;;;;;;;;11.08;100.00;101281.72;4954997;28;19930;-78
2022/10/26 08:23:30;;;;;;;;;;;;;;;11.17;100.00;101272.53;4954650;28;20355;-78
2022/10/26 08:25:59;;;;;;;;;;;;;;;11.24;100.00;101272.19;4953377;28;20519;-79
2022/10/26 08:28:24;;;;;;;;;;;;;;;11.33;100.00;101270.97;4954406;28;20237;-79
2022/10/26 08:30:50;;;;;;;;;;;;;;;11.42;100.00;101267.06;4954400;28;20085;-78
2022/10/26 08:33:15;;;;;;;;;;;;;;;11.53;100.00;101272.78;4954096;28;19930;-79
2022/10/26 08:35:41;;;;;;;;;;;;;;;11.63;100.00;101277.69;4953283;28;20297;-75
2022/10/26 08:38:06;;;;;;;;;;;;;;;11.75;100.00;101279.81;4953847;28;19965;-76
2022/10/26 08:40:32;;;;;;;;;;;;;;;11.85;100.00;101277.63;4954792;28;19930;-76
2022/10/26 08:43:03;;;;;;;;;;;;;;;11.91;100.00;101285.31;4933107;28;19930;-77
2022/10/26 08:45:32;;;;;;;;;;;;;;;11.96;100.00;101293.06;4931620;28;19933;-76
2022/10/26 08:48:02;;;;;;;;;;;;;;;11.99;100.00;101292.91;4954307;28;19931;-76
2022/10/26 08:50:31;;;;;;;;;;;;;;;12.04;100.00;101295.41;4907247;28;19930;-76
2022/10/26 08:53:01;;;;;;;;;;;;;;;12.07;100.00;101290.84;4934744;28;20290;-76
2022/10/26 08:55:28;;;;;;;;;;;;;;;12.12;100.00;101287.97;4953606;28;19934;-78
2022/10/26 08:57:53;;;;;;;;;;;;;;;12.17;100.00;101291.28;4953121;28;20013;-77
2022/10/26 09:00:19;;;;;;;;;;;;;;;12.22;100.00;101297.22;4934128;28;19929;-77
2022/10/26 09:02:50;;;;;;;;;;;;;;;12.29;100.00;101305.78;4931743;28;19931;-77
2022/10/26 09:05:18;;;;;;;;;;;;;;;12.34;100.00;101295.81;4931620;28;19961;-77
2022/10/26 09:07:43;;;;;;;;;;;;;;;12.40;100.00;101293.81;4954429;28;19969;-77
2022/10/26 09:10:12;;;;;;;;;;;;;;;12.45;100.00;101295.34;4957107;28;20528;-77
2022/10/26 09:12:40;;;;;;;;;;;;;;;12.51;100.00;101299.47;4957740;28;19977;-76
2022/10/26 09:15:24;;;;;;;;;;;;;;;12.55;100.00;101309.03;4957729;28;19930;-77
2022/10/26 09:18:13;;;;;;;;;;;;;;;12.61;100.00;101321.16;4956115;28;19969;-77
2022/10/26 09:20:47;;;;;;;;;;;;;;;12.64;100.00;101310.38;4920499;28;21428;-77
2022/10/26 09:23:17;;;;;;;;;;;;;;;12.68;100.00;101305.81;4957411;28;19926;-77
2022/10/26 09:25:44;;;;;;;;;;;;;;;12.74;100.00;101313.47;4936668;28;19930;-77
2022/10/26 09:28:14;;;;;;;;;;;;;;;12.80;100.00;101320.31;4957123;28;20539;-77
2022/10/26 09:30:39;;;;;;;;;;;;;;;12.87;100.00;101319.94;4928110;28;20304;-77
2022/10/26 09:33:13;;;;;;;;;;;;;;;12.95;100.00;101313.38;4938275;28;19965;-77
2022/10/26 09:35:43;;;;;;;;;;;;;;;12.99;100.00;101307.88;4924033;28;20500;-77
2022/10/26 09:38:13;;;;;;;;;;;;;;;13.06;100.00;101303.09;4956676;28;19926;-77
2022/10/26 09:40:46;;;;;;;;;;;;;;;13.15;100.00;101315.97;4921903;28;19938;-77
2022/10/26 09:43:20;;;;;;;;;;;;;;;13.23;100.00;101312.06;4935500;28;19926;-77
2022/10/26 09:45:46;;;;;;;;;;;;;;;13.29;100.00;101322.41;4935662;28;19930;-77
2022/10/26 09:48:16;;;;;;;;;;;;;;;13.36;100.00;101315.84;4955571;28;19926;-77
2022/10/26 09:50:43;;;;;;;;;;;;;;;13.44;100.00;101311.00;4938145;28;20107;-77
2022/10/26 09:53:08;;;;;;;;;;;;;;;13.55;100.00;101313.16;4936156;28;19980;-77
2022/10/26 09:55:37;;;;;;;;;;;;;;;13.66;100.00;101312.59;4956724;28;20457;-77
2022/10/26 09:58:03;;;;;;;;;;;;;;;13.78;100.00;101313.75;4936252;28;19942;-77
2022/10/26 10:00:29;;;;;;;;;;;;;;;13.87;100.00;101311.56;4938671;28;20013;-77
2022/10/26 10:02:55;;;;;;;;;;;;;;;13.92;100.00;101305.06;4956450;28;19989;-77
2022/10/26 10:05:27;;;;;;;;;;;;;;;13.98;100.00;101307.41;4935747;28;19931;-77
2022/10/26 10:08:11;;;;;;;;;;;;;;;14.02;100.00;101310.78;4955656;28;19930;-77
2022/10/26 10:10:37;;;;;;;;;;;;;;;14.05;100.00;101309.75;4956850;28;20895;-77
2022/10/26 10:13:15;;;;;;;;;;;;;;;14.07;100.00;101314.06;4937612;28;19926;-77
2022/10/26 10:15:42;;;;;;;;;;;;;;;14.13;100.00;101302.22;4934070;28;20271;-77
2022/10/26 10:18:17;;;;;;;;;;;;;;;14.16;100.00;101307.38;4936061;28;19937;-77
2022/10/26 10:20:48;;;;;;;;;;;;;;;14.19;100.00;101301.91;4936695;28;19933;-77
2022/10/26 10:23:20;;;;;;;;;;;;;;;14.25;100.00;101306.03;4937598;28;19930;-77
2022/10/26 10:25:45;;;;;;;;;;;;;;;14.30;100.00;101297.78;4956660;28;19930;-77
2022/10/26 10:28:21;;;;;;;;;;;;;;;14.36;100.00;101298.31;4955453;28;19984;-77
2022/10/26 10:30:58;;;;;;;;;;;;;;;14.44;100.00;101299.69;4936611;28;20004;-77
2022/10/26 10:33:36;;;;;;;;;;;;;;;14.47;100.00;101313.72;4955712;28;20477;-77
2022/10/26 10:36:02;;;;;;;;;;;;;;;14.53;100.00;101320.50;4956176;28;19933;-77
2022/10/26 10:38:28;;;;;;;;;;;;;;;14.58;100.00;101329.09;4945281;28;20486;-75
2022/10/26 10:40:57;;;;;;;;;;;;;;;14.66;100.00;101326.03;4956334;28;19930;-75
2022/10/26 10:43:22;;;;;;;;;;;;;;;14.69;100.00;101336.50;4951650;28;19953;-75
2022/10/26 10:45:48;;;;;;;;;;;;;;;14.73;100.00;101338.06;4955740;28;19926;-75
2022/10/26 10:48:15;;;;;;;;;;;;;;;14.77;100.00;101352.13;4953213;28;19926;-75
2022/10/26 10:50:52;;;;;;;;;;;;;;;14.82;100.00;101351.84;4954022;28;20393;-76
2022/10/26 10:53:22;;;;;;;;;;;;;;;14.86;100.00;101356.09;4954970;28;20400;-75
2022/10/26 10:56:06;;;;;;;;;;;;;;;14.89;100.00;101358.56;4936669;28;19930;-75
2022/10/26 10:58:41;;;;;;;;;;;;;;;14.91;100.00;101365.53;4951782;28;19984;-75
2022/10/26 11:01:09;;;;;;;;;;;;;;;14.91;100.00;101362.88;4955954;28;19976;-75
2022/10/26 11:03:43;;;;;;;;;;;;;;;14.94;100.00;101361.84;4968967;28;19976;-75
2022/10/26 11:06:10;;;;;;;;;;;;;;;14.98;100.00;101365.19;4951892;28;20024;-76
2022/10/26 11:08:40;;;;;;;;;;;;;;;15.02;100.00;101374.72;4950323;28;19933;-79
2022/10/26 11:11:08;;;;;;;;;;;;;;;15.05;100.00;101385.25;4949511;28;20491;-76
2022/10/26 11:13:52;;;;;;;;;;;;;;;15.10;100.00;101388.50;4949258;28;20566;-76
2022/10/26 11:16:25;;;;;;;;;;;;;;;15.15;100.00;101386.44;4955605;28;19938;-76
2022/10/26 11:18:53;;;;;;;;;;;;;;;15.20;100.00;101381.69;4955849;28;19969;-75
2022/10/26 11:21:28;;;;;;;;;;;;;;;15.25;100.00;101378.75;4948910;28;19940;-77
2022/10/26 11:24:12;;;;;;;;;;;;;;;15.31;100.00;101375.75;4949701;28;19933;-76
2022/10/26 11:26:39;;;;;;;;;;;;;;;15.38;100.00;101381.63;4953375;28;20448;-76
2022/10/26 11:29:27;;;;;;;;;;;;;;;15.42;100.00;101383.13;4953576;28;19934;-76
2022/10/26 11:31:54;;;;;;;;;;;;;;;15.45;100.00;101387.44;4948793;28;20199;-76
2022/10/26 11:34:29;;;;;;;;;;;;;;;15.46;100.00;101379.34;4934038;28;19932;-77
2022/10/26 11:36:56;;;;;;;;;;;;;;;15.51;100.00;101403.09;4948269;28;19926;-77
2022/10/26 11:39:33;;;;;;;;;;;;;;;15.53;100.00;101403.84;4913906;28;20023;-77
2022/10/26 11:42:08;;;;;;;;;;;;;;;15.55;100.00;101410.00;4931650;28;19980;-76
2022/10/26 11:44:41;;;;;;;;;;;;;;;15.54;100.00;101405.59;4954329;28;19970;-77
2022/10/26 11:47:17;;;;;;;;;;;;;;;15.51;100.00;101403.09;4934679;28;19930;-76
2022/10/26 11:50:01;;;;;;;;;;;;;;;15.51;100.00;101404.94;4934113;28;19957;-76
2022/10/26 11:52:47;;;;;;;;;;;;;;;15.52;100.00;101402.16;4931795;28;19930;-76
2022/10/26 11:55:12;;;;;;;;;;;;;;;15.52;100.00;101410.16;4953442;28;20008;-76
2022/10/26 11:57:38;;;;;;;;;;;;;;;15.54;100.00;101412.75;4952662;28;19984;-76
2022/10/26 12:00:14;;;;;;;;;;;;;;;15.56;100.00;101411.72;4905439;28;20357;-77
2022/10/26 12:02:40;;;;;;;;;;;;;;;15.63;100.00;101422.88;4922531;28;20499;-76
2022/10/26 12:05:15;;;;;;;;;;;;;;;15.67;100.00;101415.53;4954589;28;19930;-76
2022/10/26 12:07:42;;;;;;;;;;;;;;;15.64;100.00;101413.94;4951208;28;20123;-76
2022/10/26 12:10:12;;;;;;;;;;;;;;;15.63;100.00;101416.69;4952059;28;19930;-76
2022/10/26 12:12:39;;;;;;;;;;;;;;;15.63;100.00;101422.03;4937309;28;19934;-76
2022/10/26 12:15:23;;;;;;;;;;;;;;;15.62;100.00;101421.16;4954355;28;19930;-76
2022/10/26 12:17:50;;;;;;;;;;;;;;;15.61;100.00;101414.97;4953434;28;19961;-76
2022/10/26 12:20:34;;;;;;;;;;;;;;;15.61;100.00;101412.31;4933228;28;19926;-76
2022/10/26 12:22:59;;;;;;;;;;;;;;;15.60;100.00;101418.56;4954368;28;20278;-76
2022/10/26 12:25:25;;;;;;;;;;;;;;;15.61;100.00;101428.31;4932870;28;19954;-76
2022/10/26 12:27:51;;;;;;;;;;;;;;;15.64;100.00;101423.75;4953479;28;19937;-77
2022/10/26 12:30:17;;;;;;;;;;;;;;;15.63;100.00;101412.19;4934011;28;20507;-76
2022/10/26 12:32:42;;;;;;;;;;;;;;;15.65;100.00;101412.13;4936456;28;19930;-77
2022/10/26 12:35:26;;;;;;;;;;;;;;;15.63;100.00;101411.34;4936394;28;19933;-77
2022/10/26 12:37:52;;;;;;;;;;;;;;;15.64;100.00;101429.97;4951949;28;19930;-77